Time;durP1;ratioP1;P1;durP2;ratioP2;P2;SDS_P1;SDS_P2;PMS_P1;PMS_P2;Temp;Humidity;BMP_temperature;BMP_pressure;BME280_temperature;BME280_humidity;BME280_pressure;Samples;Min_cycle;Max_cycle;Signal;HPM_P1;HPM_P2
2023/07/08 00:01:10;;;;;;;56.77;2.10;;;;;;;;;;5032292;28;20442;-68
2023/07/08 00:03:37;;;;;;;56.80;2.03;;;;;;;;;;5032581;28;20453;-68
2023/07/08 00:06:04;;;;;;;57.10;2.40;;;;;;;;;;5031999;28;20456;-68
2023/07/08 00:08:31;;;;;;;57.60;2.97;;;;;;;;;;5032653;28;20457;-69
2023/07/08 00:10:58;;;;;;;57.10;2.80;;;;;;;;;;5032584;28;20453;-69
2023/07/08 00:13:25;;;;;;;57.73;3.20;;;;;;;;;;5032735;28;20455;-69
2023/07/08 00:15:54;;;;;;;60.50;3.87;;;;;;;;;;5032119;28;20445;-69
2023/07/08 00:18:21;;;;;;;57.07;2.47;;;;;;;;;;5032234;28;20476;-69
2023/07/08 00:20:49;;;;;;;65.13;2.90;;;;;;;;;;5032203;28;20453;-69
2023/07/08 00:23:16;;;;;;;57.80;3.33;;;;;;;;;;5032676;28;20450;-69
2023/07/08 00:25:44;;;;;;;56.80;2.37;;;;;;;;;;5031891;28;20465;-69
2023/07/08 00:28:11;;;;;;;58.17;3.50;;;;;;;;;;5032087;28;20598;-69
2023/07/08 00:30:38;;;;;;;57.27;2.70;;;;;;;;;;5032240;28;20449;-69
2023/07/08 00:33:07;;;;;;;57.57;2.70;;;;;;;;;;5032064;28;20449;-67
2023/07/08 00:35:36;;;;;;;56.73;2.30;;;;;;;;;;5031853;28;20469;-67
2023/07/08 00:38:12;;;;;;;56.97;2.30;;;;;;;;;;5032113;28;20484;-67
2023/07/08 00:40:40;;;;;;;57.07;2.93;;;;;;;;;;5032289;28;20831;-67
2023/07/08 00:43:07;;;;;;;59.20;2.70;;;;;;;;;;5031996;28;20511;-67
2023/07/08 00:45:40;;;;;;;58.70;3.50;;;;;;;;;;5031530;28;20460;-67
2023/07/08 00:48:13;;;;;;;57.03;2.50;;;;;;;;;;5031965;28;20512;-67
2023/07/08 00:50:40;;;;;;;57.87;3.27;;;;;;;;;;5032126;28;20445;-67
2023/07/08 00:53:29;;;;;;;57.57;3.17;;;;;;;;;;5031710;28;20942;-68
2023/07/08 00:55:57;;;;;;;56.90;2.40;;;;;;;;;;5031510;28;20469;-68
2023/07/08 00:58:25;;;;;;;57.10;2.67;;;;;;;;;;5031505;28;20465;-67
2023/07/08 01:00:53;;;;;;;58.27;4.10;;;;;;;;;;5031520;28;20934;-67
2023/07/08 01:03:22;;;;;;;56.87;2.30;;;;;;;;;;5031505;28;20945;-67
2023/07/08 01:05:49;;;;;;;57.60;2.50;;;;;;;;;;5031362;28;20452;-67
2023/07/08 01:08:16;;;;;;;58.47;2.27;;;;;;;;;;5031388;28;20868;-67
2023/07/08 01:10:47;;;;;;;57.00;2.30;;;;;;;;;;5031516;28;20817;-67
2023/07/08 01:13:15;;;;;;;56.63;2.47;;;;;;;;;;5031529;28;20445;-67
2023/07/08 01:15:43;;;;;;;56.80;2.73;;;;;;;;;;5029356;28;20445;-68
2023/07/08 01:18:11;;;;;;;57.30;2.70;;;;;;;;;;5031282;28;20476;-68
2023/07/08 01:20:40;;;;;;;57.17;3.13;;;;;;;;;;5031271;28;20445;-68
2023/07/08 01:23:09;;;;;;;57.40;2.77;;;;;;;;;;5031374;28;20452;-68
2023/07/08 01:25:36;;;;;;;57.13;2.43;;;;;;;;;;5031223;28;20452;-68
2023/07/08 01:28:03;;;;;;;57.30;2.90;;;;;;;;;;5031146;28;20493;-68
2023/07/08 01:30:31;;;;;;;59.20;4.07;;;;;;;;;;5031246;28;20832;-68
2023/07/08 01:33:00;;;;;;;57.17;2.50;;;;;;;;;;5031067;28;20452;-68
2023/07/08 01:35:28;;;;;;;56.90;3.00;;;;;;;;;;5031166;28;20449;-68
2023/07/08 01:37:56;;;;;;;57.30;2.67;;;;;;;;;;5031281;28;20840;-68
2023/07/08 01:40:27;;;;;;;58.00;3.90;;;;;;;;;;5031160;28;20949;-68
2023/07/08 01:42:54;;;;;;;57.17;2.80;;;;;;;;;;5031027;28;20452;-68
2023/07/08 01:45:22;;;;;;;56.80;2.80;;;;;;;;;;5030713;28;20455;-68
2023/07/08 01:47:52;;;;;;;57.70;2.47;;;;;;;;;;5030787;28;20516;-68
2023/07/08 01:50:20;;;;;;;58.13;2.97;;;;;;;;;;5031529;28;20472;-68
2023/07/08 01:52:47;;;;;;;57.20;3.00;;;;;;;;;;5031069;28;20473;-68
2023/07/08 01:55:14;;;;;;;60.60;2.93;;;;;;;;;;5030785;28;20812;-67
2023/07/08 01:57:43;;;;;;;57.17;2.30;;;;;;;;;;5031356;28;20465;-68
2023/07/08 02:00:10;;;;;;;56.97;3.00;;;;;;;;;;5030807;28;20445;-68
2023/07/08 02:02:38;;;;;;;58.17;3.77;;;;;;;;;;5030766;28;20946;-68
2023/07/08 02:05:05;;;;;;;57.17;2.60;;;;;;;;;;5030704;28;20453;-68
2023/07/08 02:07:32;;;;;;;58.17;2.83;;;;;;;;;;5030788;28;20493;-68
2023/07/08 02:09:59;;;;;;;57.20;2.57;;;;;;;;;;5031032;28;20449;-68
2023/07/08 02:12:26;;;;;;;57.20;3.13;;;;;;;;;;5030743;28;20983;-68
2023/07/08 02:14:55;;;;;;;57.70;2.80;;;;;;;;;;5030735;28;20441;-68
2023/07/08 02:17:22;;;;;;;58.77;2.40;;;;;;;;;;5030806;28;20814;-68
2023/07/08 02:19:49;;;;;;;56.87;2.47;;;;;;;;;;5030869;28;20449;-68
2023/07/08 02:22:16;;;;;;;57.87;3.70;;;;;;;;;;5030825;28;20445;-68
2023/07/08 02:24:43;;;;;;;57.30;3.00;;;;;;;;;;5034758;28;20825;-67
2023/07/08 02:27:10;;;;;;;57.90;2.60;;;;;;;;;;5033859;28;20485;-67
2023/07/08 02:29:38;;;;;;;57.00;2.30;;;;;;;;;;5034617;28;20514;-68
2023/07/08 02:32:09;;;;;;;58.47;3.60;;;;;;;;;;5034476;28;20503;-67
2023/07/08 02:34:36;;;;;;;58.40;3.13;;;;;;;;;;5034660;28;20456;-68
2023/07/08 02:37:03;;;;;;;59.17;3.33;;;;;;;;;;5034006;28;20461;-68
2023/07/08 02:39:30;;;;;;;56.67;2.20;;;;;;;;;;5034213;28;20449;-68
2023/07/08 02:41:57;;;;;;;57.00;2.70;;;;;;;;;;5034131;28;20453;-68
2023/07/08 02:44:26;;;;;;;57.87;3.33;;;;;;;;;;5034311;28;20536;-69
2023/07/08 02:46:53;;;;;;;56.90;2.30;;;;;;;;;;5033459;28;21056;-68
2023/07/08 02:49:21;;;;;;;58.20;3.97;;;;;;;;;;5034156;28;20449;-68
2023/07/08 02:51:49;;;;;;;59.43;4.43;;;;;;;;;;5034139;28;20451;-68
2023/07/08 02:54:16;;;;;;;57.30;2.60;;;;;;;;;;5033767;28;20448;-68
2023/07/08 02:56:43;;;;;;;57.30;2.67;;;;;;;;;;5033583;28;20985;-69
2023/07/08 02:59:10;;;;;;;56.97;2.40;;;;;;;;;;5034185;28;20445;-68
2023/07/08 03:01:41;;;;;;;56.73;2.53;;;;;;;;;;5033915;28;20904;-68
2023/07/08 03:04:08;;;;;;;58.10;3.80;;;;;;;;;;5033952;28;20461;-69
2023/07/08 03:06:37;;;;;;;57.00;2.63;;;;;;;;;;5033588;28;20813;-68
2023/07/08 03:09:04;;;;;;;57.80;3.00;;;;;;;;;;5033344;28;20496;-68
2023/07/08 03:11:31;;;;;;;57.67;2.90;;;;;;;;;;5033997;28;20456;-68
2023/07/08 03:13:58;;;;;;;56.90;2.30;;;;;;;;;;5033808;28;20461;-68
2023/07/08 03:16:25;;;;;;;56.80;2.40;;;;;;;;;;5033260;28;20466;-68
2023/07/08 03:18:52;;;;;;;57.70;2.40;;;;;;;;;;5033512;28;20461;-68
2023/07/08 03:21:19;;;;;;;57.50;2.30;;;;;;;;;;5033407;28;20445;-68
2023/07/08 03:23:49;;;;;;;56.67;2.20;;;;;;;;;;5033782;28;20820;-68
2023/07/08 03:26:17;;;;;;;58.07;2.80;;;;;;;;;;5032951;28;20933;-68
2023/07/08 03:28:44;;;;;;;57.00;2.30;;;;;;;;;;5033336;28;20484;-68
2023/07/08 03:31:11;;;;;;;56.80;2.30;;;;;;;;;;5033333;28;20445;-68
2023/07/08 03:33:39;;;;;;;58.70;2.93;;;;;;;;;;5032515;28;20457;-68
2023/07/08 03:36:09;;;;;;;57.00;2.50;;;;;;;;;;5032033;28;20467;-68
2023/07/08 03:38:37;;;;;;;56.77;2.30;;;;;;;;;;5033368;28;20457;-68
2023/07/08 03:41:05;;;;;;;57.03;2.93;;;;;;;;;;5033074;28;20465;-68
2023/07/08 03:43:32;;;;;;;56.90;2.60;;;;;;;;;;5033092;28;20461;-68
2023/07/08 03:45:59;;;;;;;57.50;3.00;;;;;;;;;;5032897;28;20464;-68
2023/07/08 03:48:26;;;;;;;56.80;2.77;;;;;;;;;;5032722;28;20493;-69
2023/07/08 03:50:53;;;;;;;57.20;2.97;;;;;;;;;;5032867;28;20453;-68
2023/07/08 03:53:20;;;;;;;56.80;2.60;;;;;;;;;;5033351;28;20456;-68
2023/07/08 03:55:48;;;;;;;57.87;3.13;;;;;;;;;;5032781;28;20460;-66
2023/07/08 03:58:16;;;;;;;56.93;2.70;;;;;;;;;;5033035;28;20473;-68
2023/07/08 04:00:43;;;;;;;57.07;3.00;;;;;;;;;;5032647;28;20453;-68
2023/07/08 04:03:12;;;;;;;56.53;2.30;;;;;;;;;;5032612;28;20449;-68
2023/07/08 04:05:39;;;;;;;56.63;2.40;;;;;;;;;;5032440;28;20457;-66
2023/07/08 04:08:06;;;;;;;57.10;2.73;;;;;;;;;;5032432;28;20496;-68
2023/07/08 04:10:33;;;;;;;57.73;3.53;;;;;;;;;;5032452;28;20953;-69
2023/07/08 04:13:00;;;;;;;56.93;2.53;;;;;;;;;;5032519;28;20459;-68
2023/07/08 04:15:29;;;;;;;59.30;2.60;;;;;;;;;;5032004;28;20449;-68
2023/07/08 04:17:57;;;;;;;58.43;3.67;;;;;;;;;;5032796;28;20465;-67
2023/07/08 04:20:24;;;;;;;57.30;2.50;;;;;;;;;;5032456;28;20449;-67
2023/07/08 04:22:51;;;;;;;56.83;2.40;;;;;;;;;;5032331;28;21119;-67
2023/07/08 04:25:20;;;;;;;59.00;2.30;;;;;;;;;;5032033;28;20449;-67
2023/07/08 04:27:47;;;;;;;57.37;3.30;;;;;;;;;;5032027;28;20485;-67
2023/07/08 04:30:20;;;;;;;58.97;2.57;;;;;;;;;;5032089;28;20445;-67
2023/07/08 04:32:48;;;;;;;56.73;2.13;;;;;;;;;;5031967;28;20456;-67
2023/07/08 04:35:16;;;;;;;56.87;2.83;;;;;;;;;;5031755;28;20457;-67
2023/07/08 04:37:43;;;;;;;57.07;2.93;;;;;;;;;;5032024;28;20465;-67
2023/07/08 04:40:15;;;;;;;56.80;2.60;;;;;;;;;;5031852;28;20457;-68
2023/07/08 04:42:44;;;;;;;56.97;2.60;;;;;;;;;;5031888;28;20456;-67
2023/07/08 04:45:12;;;;;;;57.87;2.50;;;;;;;;;;5031697;28;20453;-67
2023/07/08 04:47:39;;;;;;;56.83;2.57;;;;;;;;;;5031722;28;20473;-67
2023/07/08 04:50:08;;;;;;;56.47;2.13;;;;;;;;;;5031783;28;20459;-67
2023/07/08 04:52:35;;;;;;;57.40;3.50;;;;;;;;;;5031773;28;20451;-67
2023/07/08 04:55:03;;;;;;;56.80;2.77;;;;;;;;;;5031351;28;20895;-67
2023/07/08 04:57:30;;;;;;;57.10;2.70;;;;;;;;;;5031886;28;20844;-67
2023/07/08 04:59:57;;;;;;;56.80;2.90;;;;;;;;;;5031817;28;20449;-67
2023/07/08 05:02:24;;;;;;;58.17;3.17;;;;;;;;;;5031682;28;20455;-67
2023/07/08 05:04:51;;;;;;;60.23;2.40;;;;;;;;;;5031625;28;20449;-67
2023/07/08 05:07:20;;;;;;;57.00;2.60;;;;;;;;;;5031159;28;20469;-67
2023/07/08 05:09:47;;;;;;;56.83;2.87;;;;;;;;;;5031251;28;20489;-67
2023/07/08 05:12:14;;;;;;;56.80;2.10;;;;;;;;;;5031576;28;20449;-67
2023/07/08 05:14:41;;;;;;;56.57;2.20;;;;;;;;;;5031577;28;20449;-67
2023/07/08 05:17:08;;;;;;;57.40;2.83;;;;;;;;;;5031013;28;20993;-67
2023/07/08 05:19:35;;;;;;;56.60;2.50;;;;;;;;;;5031386;28;20445;-67
2023/07/08 05:22:02;;;;;;;57.23;2.60;;;;;;;;;;5031226;28;20454;-67
2023/07/08 05:24:31;;;;;;;56.43;2.17;;;;;;;;;;5031251;28;20476;-67
2023/07/08 05:26:59;;;;;;;57.00;3.07;;;;;;;;;;5031164;28;20468;-67
2023/07/08 05:29:26;;;;;;;56.63;2.37;;;;;;;;;;5031327;28;20996;-67
2023/07/08 05:31:53;;;;;;;57.10;2.70;;;;;;;;;;5030664;28;20456;-67
2023/07/08 05:34:20;;;;;;;56.87;2.43;;;;;;;;;;5031157;28;20457;-67
2023/07/08 05:36:47;;;;;;;56.57;2.60;;;;;;;;;;5029048;28;20491;-67
2023/07/08 05:39:15;;;;;;;56.80;2.40;;;;;;;;;;5030344;28;20460;-68
2023/07/08 05:41:43;;;;;;;58.30;2.80;;;;;;;;;;5031323;28;20453;-67
2023/07/08 05:44:10;;;;;;;57.47;3.20;;;;;;;;;;5030995;28;20457;-67
2023/07/08 05:46:37;;;;;;;56.47;2.10;;;;;;;;;;5030441;28;20480;-68
2023/07/08 05:49:04;;;;;;;57.10;2.83;;;;;;;;;;5030818;28;20480;-68
2023/07/08 05:51:31;;;;;;;56.37;2.10;;;;;;;;;;5030852;28;20453;-68
2023/07/08 05:53:58;;;;;;;57.90;2.63;;;;;;;;;;5031173;28;20451;-68
2023/07/08 05:56:25;;;;;;;56.57;2.33;;;;;;;;;;5030566;28;20477;-67
2023/07/08 05:58:54;;;;;;;57.00;3.00;;;;;;;;;;5033923;28;20844;-68
2023/07/08 06:01:21;;;;;;;56.77;2.70;;;;;;;;;;5035628;28;20453;-68
2023/07/08 06:03:49;;;;;;;56.40;2.50;;;;;;;;;;5034880;28;20851;-67
2023/07/08 06:06:16;;;;;;;56.60;2.70;;;;;;;;;;5034591;28;20511;-67
2023/07/08 06:08:44;;;;;;;56.97;2.83;;;;;;;;;;5034766;28;20489;-68
2023/07/08 06:11:11;;;;;;;56.37;2.23;;;;;;;;;;5034897;28;20503;-67
2023/07/08 06:13:38;;;;;;;57.00;2.93;;;;;;;;;;5034766;28;20455;-67
2023/07/08 06:16:06;;;;;;;57.20;2.60;;;;;;;;;;5034179;28;20449;-67
2023/07/08 06:18:34;;;;;;;57.80;3.30;;;;;;;;;;5034540;28;20941;-67
2023/07/08 06:21:01;;;;;;;56.17;2.20;;;;;;;;;;5034839;28;20451;-67
2023/07/08 06:23:28;;;;;;;56.87;2.10;;;;;;;;;;5034679;28;20459;-67
2023/07/08 06:25:56;;;;;;;56.70;2.10;;;;;;;;;;5034238;28;20455;-68
2023/07/08 06:28:23;;;;;;;58.10;3.40;;;;;;;;;;5034378;28;20489;-68
2023/07/08 06:30:51;;;;;;;57.57;2.57;;;;;;;;;;5035116;28;20453;-67
2023/07/08 06:33:19;;;;;;;58.37;2.80;;;;;;;;;;5034511;28;20452;-68
2023/07/08 06:35:46;;;;;;;56.70;2.40;;;;;;;;;;5034137;28;20456;-68
2023/07/08 06:38:13;;;;;;;57.57;2.43;;;;;;;;;;5034137;28;20473;-67
2023/07/08 06:40:40;;;;;;;56.83;2.60;;;;;;;;;;5034086;28;20445;-67
2023/07/08 06:43:08;;;;;;;56.97;2.87;;;;;;;;;;5034135;28;20444;-67
2023/07/08 06:45:35;;;;;;;58.40;2.30;;;;;;;;;;5033655;28;20445;-68
2023/07/08 06:48:02;;;;;;;56.67;2.20;;;;;;;;;;5034171;28;20552;-68
2023/07/08 06:50:30;;;;;;;57.10;2.60;;;;;;;;;;5034289;28;20468;-68
2023/07/08 06:52:57;;;;;;;57.10;2.43;;;;;;;;;;5034229;28;20452;-68
2023/07/08 06:55:24;;;;;;;56.50;2.33;;;;;;;;;;5033739;28;20453;-68
2023/07/08 06:57:52;;;;;;;55.90;2.23;;;;;;;;;;5033883;28;20836;-68
2023/07/08 07:00:19;;;;;;;57.40;3.03;;;;;;;;;;5033618;28;20445;-68
2023/07/08 07:02:46;;;;;;;68.30;4.37;;;;;;;;;;5034136;28;20449;-68
2023/07/08 07:05:13;;;;;;;57.27;2.37;;;;;;;;;;5033612;28;20452;-68
2023/07/08 07:07:41;;;;;;;56.80;2.30;;;;;;;;;;5033518;28;20469;-68
2023/07/08 07:10:09;;;;;;;57.40;2.53;;;;;;;;;;5033394;28;20480;-68
2023/07/08 07:12:36;;;;;;;57.00;2.30;;;;;;;;;;5033538;28;20454;-68
2023/07/08 07:15:04;;;;;;;56.80;2.37;;;;;;;;;;5033719;28;20794;-68
2023/07/08 07:17:31;;;;;;;56.73;2.20;;;;;;;;;;5033568;28;20472;-68
2023/07/08 07:19:58;;;;;;;57.27;2.50;;;;;;;;;;5033615;28;20810;-68
2023/07/08 07:22:25;;;;;;;58.20;2.20;;;;;;;;;;5033440;28;20472;-68
2023/07/08 07:24:54;;;;;;;56.03;2.30;;;;;;;;;;5033323;28;20453;-68
2023/07/08 07:27:21;;;;;;;57.17;3.13;;;;;;;;;;5033106;28;20466;-68
2023/07/08 07:29:49;;;;;;;57.00;2.40;;;;;;;;;;5033393;28;20481;-68
2023/07/08 07:32:16;;;;;;;56.37;2.17;;;;;;;;;;5033472;28;20449;-69
2023/07/08 07:34:43;;;;;;;58.67;2.50;;;;;;;;;;5030412;28;20461;-68
2023/07/08 07:37:13;;;;;;;57.27;2.87;;;;;;;;;;5032633;28;20477;-68
2023/07/08 07:39:40;;;;;;;59.33;2.50;;;;;;;;;;5032675;28;20933;-68
2023/07/08 07:42:09;;;;;;;57.07;2.73;;;;;;;;;;5033168;28;20445;-68
2023/07/08 07:44:36;;;;;;;56.67;2.20;;;;;;;;;;5033103;28;20460;-69
2023/07/08 07:47:04;;;;;;;56.27;1.90;;;;;;;;;;5032758;28;20493;-68
2023/07/08 07:49:31;;;;;;;56.60;2.00;;;;;;;;;;5030300;28;20564;-69
2023/07/08 07:51:58;;;;;;;56.73;2.13;;;;;;;;;;5032711;28;20449;-68
2023/07/08 07:54:25;;;;;;;57.90;2.80;;;;;;;;;;5032933;28;20453;-68
2023/07/08 07:56:52;;;;;;;56.50;2.40;;;;;;;;;;5032520;28;20469;-68
2023/07/08 07:59:21;;;;;;;57.03;2.00;;;;;;;;;;5032525;28;20466;-68
2023/07/08 08:01:48;;;;;;;57.20;2.23;;;;;;;;;;5032691;28;20453;-68
2023/07/08 08:04:15;;;;;;;57.70;2.60;;;;;;;;;;5032644;28;20933;-68
2023/07/08 08:06:42;;;;;;;57.73;3.47;;;;;;;;;;5032240;28;20465;-68
2023/07/08 08:09:09;;;;;;;56.77;2.40;;;;;;;;;;5032310;28;20495;-68
2023/07/08 08:11:36;;;;;;;56.70;2.50;;;;;;;;;;5032635;28;20449;-68
2023/07/08 08:14:04;;;;;;;56.37;2.00;;;;;;;;;;5032688;28;20445;-69
2023/07/08 08:16:32;;;;;;;56.50;2.40;;;;;;;;;;5032769;28;20479;-69
2023/07/08 08:18:59;;;;;;;56.87;2.50;;;;;;;;;;5032266;28;20442;-69
2023/07/08 08:21:26;;;;;;;56.70;2.10;;;;;;;;;;5031715;28;20934;-69
2023/07/08 08:23:53;;;;;;;56.80;2.70;;;;;;;;;;5032564;28;20829;-69
2023/07/08 08:26:20;;;;;;;56.27;1.90;;;;;;;;;;5031950;28;20445;-69
2023/07/08 08:28:47;;;;;;;56.43;1.90;;;;;;;;;;5032157;28;20445;-69
2023/07/08 08:31:15;;;;;;;56.27;1.80;;;;;;;;;;5032238;28;20447;-69
2023/07/08 08:33:43;;;;;;;56.70;2.00;;;;;;;;;;5032106;28;20449;-69
2023/07/08 08:36:10;;;;;;;56.93;1.97;;;;;;;;;;5032090;28;20956;-69
2023/07/08 08:38:37;;;;;;;56.10;2.03;;;;;;;;;;5032204;28;20836;-69
2023/07/08 08:41:05;;;;;;;57.47;2.47;;;;;;;;;;5032211;28;20812;-69
2023/07/08 08:43:36;;;;;;;57.10;2.30;;;;;;;;;;5031867;28;20461;-69
2023/07/08 08:46:05;;;;;;;56.70;1.87;;;;;;;;;;5031681;28;20956;-69
2023/07/08 08:48:36;;;;;;;55.97;2.00;;;;;;;;;;5031747;28;20468;-69
2023/07/08 08:51:06;;;;;;;57.77;2.53;;;;;;;;;;5031901;28;20492;-67
2023/07/08 08:53:33;;;;;;;56.27;1.87;;;;;;;;;;5031872;28;20806;-67
2023/07/08 08:56:04;;;;;;;59.53;3.83;;;;;;;;;;5031556;28;20445;-67
2023/07/08 08:58:34;;;;;;;56.30;1.80;;;;;;;;;;5031741;28;20831;-68
2023/07/08 09:01:02;;;;;;;56.80;2.20;;;;;;;;;;5031403;28;20441;-68
2023/07/08 09:03:35;;;;;;;55.90;1.80;;;;;;;;;;5031586;28;20511;-68
2023/07/08 09:06:09;;;;;;;56.90;1.83;;;;;;;;;;5031608;28;20454;-68
2023/07/08 09:08:37;;;;;;;56.87;1.97;;;;;;;;;;5031448;28;20461;-68
2023/07/08 09:11:11;;;;;;;56.30;2.57;;;;;;;;;;5031396;28;20485;-68
2023/07/08 09:13:38;;;;;;;56.00;1.90;;;;;;;;;;5031293;28;20449;-68
2023/07/08 09:16:07;;;;;;;56.40;2.43;;;;;;;;;;5031080;28;20450;-67
2023/07/08 09:18:37;;;;;;;56.23;2.10;;;;;;;;;;5031364;28;20489;-67
2023/07/08 09:21:15;;;;;;;56.67;2.47;;;;;;;;;;5031453;28;20468;-68
2023/07/08 09:23:43;;;;;;;56.67;2.07;;;;;;;;;;5031275;28;20456;-68
2023/07/08 09:26:15;;;;;;;56.33;2.17;;;;;;;;;;5030723;28;20445;-68
2023/07/08 09:28:43;;;;;;;56.30;2.20;;;;;;;;;;5031311;28;20456;-68
2023/07/08 09:31:14;;;;;;;66.50;2.77;;;;;;;;;;5031034;28;20496;-68
2023/07/08 09:33:41;;;;;;;56.37;2.43;;;;;;;;;;5031141;28;20445;-68
2023/07/08 09:36:19;;;;;;;56.70;2.20;;;;;;;;;;5028065;28;20454;-68
2023/07/08 09:38:49;;;;;;;56.13;1.93;;;;;;;;;;5031058;28;20453;-68
2023/07/08 09:41:29;;;;;;;56.40;2.27;;;;;;;;;;5030966;28;20933;-68
2023/07/08 09:44:04;;;;;;;56.20;1.90;;;;;;;;;;5030849;28;20464;-68
2023/07/08 09:46:36;;;;;;;55.87;1.67;;;;;;;;;;5030576;28;20468;-68
2023/07/08 09:49:11;;;;;;;56.50;2.00;;;;;;;;;;5030761;28;20457;-68
2023/07/08 09:51:39;;;;;;;56.10;2.10;;;;;;;;;;5030930;28;20448;-68
2023/07/08 09:54:06;;;;;;;56.17;2.13;;;;;;;;;;5030884;28;20487;-68
2023/07/08 09:56:33;;;;;;;56.43;1.90;;;;;;;;;;5030678;28;21008;-68
2023/07/08 09:59:01;;;;;;;72.20;3.13;;;;;;;;;;5030731;28;20787;-68
2023/07/08 10:01:29;;;;;;;56.40;1.90;;;;;;;;;;5030651;28;20455;-68
2023/07/08 10:03:59;;;;;;;56.00;1.80;;;;;;;;;;5031003;28;20471;-68
2023/07/08 10:06:32;;;;;;;55.63;1.60;;;;;;;;;;5030745;28;20465;-68
2023/07/08 10:09:04;;;;;;;55.77;1.80;;;;;;;;;;5030569;28;20504;-68
2023/07/08 10:11:32;;;;;;;55.87;1.77;;;;;;;;;;5030764;28;20960;-68
2023/07/08 10:14:02;;;;;;;55.77;1.60;;;;;;;;;;5030676;28;20457;-68
2023/07/08 10:16:31;;;;;;;55.97;2.03;;;;;;;;;;5030549;28;20492;-68
2023/07/08 10:18:58;;;;;;;56.10;1.60;;;;;;;;;;5030729;28;20448;-68
2023/07/08 10:21:30;;;;;;;55.77;1.80;;;;;;;;;;5030720;28;20444;-68
2023/07/08 10:24:00;;;;;;;55.97;1.70;;;;;;;;;;5030699;28;20452;-68
2023/07/08 10:26:29;;;;;;;56.13;1.80;;;;;;;;;;5030104;28;20465;-68
2023/07/08 10:29:06;;;;;;;55.70;1.50;;;;;;;;;;5030791;28;20445;-68
2023/07/08 10:31:37;;;;;;;55.97;1.93;;;;;;;;;;5030659;28;20484;-68
2023/07/08 10:34:11;;;;;;;56.57;2.10;;;;;;;;;;5030686;28;20499;-68
2023/07/08 10:36:43;;;;;;;56.07;2.10;;;;;;;;;;5030314;28;20516;-68
2023/07/08 10:39:20;;;;;;;56.00;1.87;;;;;;;;;;5030829;28;20480;-68
2023/07/08 10:41:53;;;;;;;55.80;1.80;;;;;;;;;;5030713;28;20453;-68
2023/07/08 10:44:23;;;;;;;55.47;1.50;;;;;;;;;;5032281;28;20734;-68
2023/07/08 10:46:56;;;;;;;56.10;1.90;;;;;;;;;;5033976;28;20464;-68
2023/07/08 10:49:39;;;;;;;55.97;1.87;;;;;;;;;;5033934;28;20503;-68
2023/07/08 10:52:14;;;;;;;56.07;1.63;;;;;;;;;;5034059;28;20457;-68
2023/07/08 10:54:58;;;;;;;56.10;1.80;;;;;;;;;;5034124;28;20437;-68
2023/07/08 10:57:34;;;;;;;56.40;1.93;;;;;;;;;;5034123;28;20468;-68
2023/07/08 11:00:03;;;;;;;56.20;2.10;;;;;;;;;;5033961;28;20959;-68
2023/07/08 11:02:48;;;;;;;56.70;2.33;;;;;;;;;;5033707;28;20823;-68
2023/07/08 11:05:24;;;;;;;55.70;1.80;;;;;;;;;;5033548;28;20452;-68
2023/07/08 11:07:54;;;;;;;55.57;1.70;;;;;;;;;;5033753;28;20469;-68
2023/07/08 11:10:24;;;;;;;55.80;1.87;;;;;;;;;;5033826;28;20473;-68
2023/07/08 11:12:56;;;;;;;55.90;1.80;;;;;;;;;;5033738;28;20831;-68
2023/07/08 11:15:29;;;;;;;56.00;1.77;;;;;;;;;;5033243;28;20450;-69
2023/07/08 11:17:59;;;;;;;55.37;1.53;;;;;;;;;;5033400;28;21044;-68
2023/07/08 11:20:29;;;;;;;55.13;1.60;;;;;;;;;;5033377;28;20452;-68
2023/07/08 11:22:58;;;;;;;57.77;1.90;;;;;;;;;;5033351;28;20918;-69
2023/07/08 11:25:26;;;;;;;55.50;1.90;;;;;;;;;;5033199;28;20945;-69
2023/07/08 11:27:56;;;;;;;55.20;1.60;;;;;;;;;;5033248;28;20472;-69
2023/07/08 11:30:25;;;;;;;55.30;1.80;;;;;;;;;;5033189;28;20481;-69
2023/07/08 11:32:56;;;;;;;55.07;1.80;;;;;;;;;;5033140;28;20453;-69
2023/07/08 11:35:24;;;;;;;55.77;2.43;;;;;;;;;;5031549;28;20457;-69
2023/07/08 11:37:52;;;;;;;55.03;1.83;;;;;;;;;;5033001;28;20477;-69
2023/07/08 11:40:20;;;;;;;55.00;1.70;;;;;;;;;;5032871;28;20449;-69
2023/07/08 11:42:49;;;;;;;55.30;1.87;;;;;;;;;;5033056;28;20445;-69
2023/07/08 11:45:25;;;;;;;55.00;1.90;;;;;;;;;;5032696;28;20677;-69
2023/07/08 11:47:52;;;;;;;55.63;2.47;;;;;;;;;;5033084;28;20556;-69
2023/07/08 11:50:21;;;;;;;55.60;1.80;;;;;;;;;;5033141;28;20487;-69
2023/07/08 11:52:55;;;;;;;55.00;1.83;;;;;;;;;;5033049;28;20445;-69
2023/07/08 11:55:28;;;;;;;54.80;1.53;;;;;;;;;;5031495;28;20536;-69
2023/07/08 11:57:57;;;;;;;55.40;2.20;;;;;;;;;;5032654;28;20473;-69
2023/07/08 12:00:26;;;;;;;55.00;2.07;;;;;;;;;;5032529;28;20453;-69
2023/07/08 12:02:55;;;;;;;54.87;1.77;;;;;;;;;;5032753;28;20937;-69
2023/07/08 12:05:35;;;;;;;55.00;1.73;;;;;;;;;;5032544;28;20449;-69
2023/07/08 12:08:03;;;;;;;55.40;2.33;;;;;;;;;;5032610;28;20484;-69
2023/07/08 12:10:35;;;;;;;54.80;1.50;;;;;;;;;;5032349;28;20481;-68
2023/07/08 12:13:03;;;;;;;56.63;2.30;;;;;;;;;;5032873;28;20457;-69
2023/07/08 12:15:32;;;;;;;55.20;2.17;;;;;;;;;;5032085;28;20445;-69
2023/07/08 12:18:01;;;;;;;55.17;1.83;;;;;;;;;;5032204;28;20474;-69
2023/07/08 12:20:29;;;;;;;54.63;1.47;;;;;;;;;;5032282;28;20452;-69
2023/07/08 12:22:57;;;;;;;55.03;2.10;;;;;;;;;;5032132;28;20456;-69
2023/07/08 12:25:27;;;;;;;55.57;1.70;;;;;;;;;;5032317;28;20540;-69
2023/07/08 12:27:54;;;;;;;55.20;2.17;;;;;;;;;;5032539;28;20476;-69
2023/07/08 12:30:21;;;;;;;54.87;1.73;;;;;;;;;;5032038;28;20484;-67
2023/07/08 12:32:50;;;;;;;54.80;1.70;;;;;;;;;;5032591;28;20456;-68
2023/07/08 12:35:22;;;;;;;63.83;2.37;;;;;;;;;;5031724;28;20453;-68
2023/07/08 12:37:49;;;;;;;54.90;1.70;;;;;;;;;;5031797;28;20473;-68
2023/07/08 12:40:16;;;;;;;54.67;1.50;;;;;;;;;;5032184;28;20448;-68
2023/07/08 12:42:43;;;;;;;54.70;1.60;;;;;;;;;;5032015;28;20449;-68
2023/07/08 12:45:14;;;;;;;54.60;1.70;;;;;;;;;;5031680;28;20452;-69
2023/07/08 12:47:41;;;;;;;55.57;2.43;;;;;;;;;;5031828;28;20469;-69
2023/07/08 12:50:10;;;;;;;54.90;1.80;;;;;;;;;;5031624;28;20449;-68
2023/07/08 12:52:38;;;;;;;55.20;2.10;;;;;;;;;;5031746;28;20457;-68
2023/07/08 12:55:05;;;;;;;54.90;1.70;;;;;;;;;;5031515;28;20957;-69
2023/07/08 12:57:32;;;;;;;54.43;1.40;;;;;;;;;;5031439;28;20469;-68
2023/07/08 13:00:00;;;;;;;54.77;1.53;;;;;;;;;;5031623;28;20968;-69
2023/07/08 13:02:29;;;;;;;55.00;1.90;;;;;;;;;;5031604;28;20453;-68
2023/07/08 13:04:58;;;;;;;54.17;1.70;;;;;;;;;;5031382;28;20449;-68
2023/07/08 13:07:30;;;;;;;54.70;1.60;;;;;;;;;;5031262;28;20469;-68
2023/07/08 13:09:57;;;;;;;54.60;1.87;;;;;;;;;;5031721;28;20441;-69
2023/07/08 13:12:25;;;;;;;54.50;1.57;;;;;;;;;;5031357;28;20865;-69
2023/07/08 13:14:53;;;;;;;58.30;2.57;;;;;;;;;;5031568;28;20457;-69
2023/07/08 13:17:20;;;;;;;54.07;1.60;;;;;;;;;;5030879;28;20469;-68
2023/07/08 13:19:48;;;;;;;54.07;2.00;;;;;;;;;;5031258;28;20453;-69
2023/07/08 13:22:18;;;;;;;54.60;2.03;;;;;;;;;;5031163;28;20460;-68
2023/07/08 13:24:46;;;;;;;55.00;1.83;;;;;;;;;;5031176;28;20463;-68
2023/07/08 13:27:22;;;;;;;55.10;2.03;;;;;;;;;;5030767;28;21023;-68
2023/07/08 13:29:49;;;;;;;54.60;1.80;;;;;;;;;;5031113;28;20453;-68
2023/07/08 13:32:16;;;;;;;56.90;2.47;;;;;;;;;;5031038;28;20480;-68
2023/07/08 13:34:43;;;;;;;55.10;2.20;;;;;;;;;;5029848;28;20815;-69
2023/07/08 13:37:12;;;;;;;55.07;1.70;;;;;;;;;;5030815;28;20492;-68
2023/07/08 13:39:39;;;;;;;55.30;1.90;;;;;;;;;;5030875;28;20989;-68
2023/07/08 13:42:09;;;;;;;54.33;1.60;;;;;;;;;;5030821;28;20456;-69
2023/07/08 13:44:36;;;;;;;54.70;1.50;;;;;;;;;;5031126;28;20448;-68
2023/07/08 13:47:05;;;;;;;55.00;2.17;;;;;;;;;;5030864;28;20977;-68
2023/07/08 13:49:41;;;;;;;55.33;2.27;;;;;;;;;;5030983;28;20463;-68
2023/07/08 13:52:09;;;;;;;54.90;2.00;;;;;;;;;;5023420;28;21003;-69
2023/07/08 13:54:39;;;;;;;54.70;1.97;;;;;;;;;;5030872;28;20461;-68
2023/07/08 13:57:10;;;;;;;54.70;1.67;;;;;;;;;;5030807;28;20527;-68
2023/07/08 13:59:39;;;;;;;57.47;2.10;;;;;;;;;;5031239;28;20446;-69
2023/07/08 14:02:15;;;;;;;54.70;1.60;;;;;;;;;;5030735;28;20459;-69
2023/07/08 14:04:42;;;;;;;54.17;1.50;;;;;;;;;;5031012;28;20449;-68
2023/07/08 14:07:11;;;;;;;54.37;1.50;;;;;;;;;;5030195;28;20473;-68
2023/07/08 14:09:38;;;;;;;54.60;1.50;;;;;;;;;;5030475;28;20476;-68
2023/07/08 14:12:05;;;;;;;54.57;1.67;;;;;;;;;;5030723;28;20586;-68
2023/07/08 14:14:32;;;;;;;54.80;1.90;;;;;;;;;;5030947;28;20452;-69
2023/07/08 14:17:01;;;;;;;54.90;2.00;;;;;;;;;;5030351;28;20472;-68
2023/07/08 14:19:29;;;;;;;54.87;1.90;;;;;;;;;;5032520;28;20456;-69
2023/07/08 14:21:57;;;;;;;54.53;1.70;;;;;;;;;;5034355;28;20449;-69
2023/07/08 14:24:24;;;;;;;55.77;2.53;;;;;;;;;;5034586;28;20453;-69
2023/07/08 14:26:52;;;;;;;54.70;2.00;;;;;;;;;;5034427;28;20472;-68
2023/07/08 14:29:19;;;;;;;54.90;1.60;;;;;;;;;;5034461;28;20445;-68
2023/07/08 14:31:46;;;;;;;55.00;1.67;;;;;;;;;;5034602;28;20460;-68
2023/07/08 14:34:18;;;;;;;55.73;1.90;;;;;;;;;;5034340;28;20929;-68
2023/07/08 14:36:45;;;;;;;55.17;1.87;;;;;;;;;;5033951;28;20465;-68
2023/07/08 14:39:14;;;;;;;55.00;1.70;;;;;;;;;;5034628;28;20850;-68